Flag for French Guiana

Past Weather in Cayenne, French Guiana — Yesterday and Last 2 Weeks

Currently: 75 °F. Mostly cloudy. (Weather station: Cayenne / Rochambeau, French Guiana). See more current weather

Past Weather in Cayenne — Graph

°F

Cayenne Temperature Yesterday

Maximum temperature yesterday: 84 °F (at 10:00 am)
Minimum temperature yesterday: 75 °F (at 9:00 pm)
Average temperature yesterday: 80 °F

High & Low Weather Summary for the Past Weeks

 TemperatureHumidityPressure
High90 °F (Apr 11, 3:00 pm)100% (Apr 5, 3:00 am)29.95 "Hg (Apr 5, 3:00 am)
Low73 °F (Apr 8, 1:30 am)59% (Apr 16, 1:30 pm)29.77 "Hg (Apr 5, 3:00 pm)
Average79 °F88%29.86 "Hg
* Reported Apr 4 10:00 pm — Apr 19 10:00 pm, Cayenne. Weather by CustomWeather, © 2021

Note: Actual official high and low records may vary slightly from our data, if they occured in-between our weather recording intervals... More about our weather records

Cayenne Weather History for the Previous 24 Hours

Scroll right to see more
 ConditionsComfort  
Time TempWeatherWind HumidityBarometerVisibility
10:00 pm
Mon, Apr 19
75 °FLight rain. Overcast.2 mph100%29.95 "HgN/A
9:30 pm75 °FMostly cloudy.3 mph100%29.92 "HgN/A
9:00 pm75 °FLow clouds.3 mph100%29.92 "HgN/A
8:30 pm75 °FPassing clouds.No wind100%29.92 "HgN/A
8:00 pm75 °FPartly cloudy.2 mph94%29.89 "HgN/A
7:30 pm75 °FPartly cloudy.2 mph94%29.89 "HgN/A
7:00 pm75 °FMostly cloudy.5 mph94%29.86 "HgN/A
6:30 pm77 °FLight rain. Mostly cloudy.6 mph94%29.86 "HgN/A
6:00 pm77 °FMostly cloudy.5 mph89%29.86 "HgN/A
5:30 pm77 °FMostly cloudy.9 mph89%29.86 "HgN/A
5:00 pm77 °FPartly sunny.13 mph94%29.86 "HgN/A
4:30 pm77 °FMostly cloudy.13 mph94%29.86 "HgN/A
4:00 pm77 °FRain. Fog.5 mph94%29.86 "Hg1 mi
3:30 pm77 °FBroken clouds.3 mph94%29.86 "HgN/A
3:00 pm77 °FLight rain. Fog.3 mph94%29.89 "Hg2 mi
2:30 pm79 °FLight rain. Fog.2 mph94%29.89 "Hg1 mi
2:00 pm81 °FPartly sunny.2 mph89%29.89 "HgN/A
1:30 pm79 °FMore clouds than sun.3 mph89%29.92 "HgN/A
1:00 pm79 °FBroken clouds.3 mph94%29.92 "HgN/A
12:30 pm79 °FPartly sunny.6 mph89%29.95 "HgN/A
12:00 pm79 °FMostly cloudy.1 mph94%29.95 "HgN/A
11:30 am79 °FMostly cloudy.5 mph94%29.95 "HgN/A
11:00 am81 °FHeavy rain. Fog.No wind89%29.95 "Hg1 mi
10:30 am81 °FBroken clouds.No wind89%29.95 "HgN/A
10:00 am79 °FRain. Fog.3 mph94%29.95 "Hg3 mi
9:30 am81 °FLight rain. Partly sunny.6 mph84%29.95 "HgN/A
9:00 am81 °FPartly sunny.8 mph89%29.95 "HgN/A
8:30 am79 °FBroken clouds.3 mph94%29.95 "HgN/A
8:00 am77 °FMostly cloudy.2 mph94%29.92 "HgN/A
7:30 am77 °FPartly sunny.2 mph94%29.92 "HgN/A
7:00 am75 °FPartly sunny.3 mph100%29.92 "HgN/A
6:30 am75 °FBroken clouds.2 mph94%29.89 "HgN/A
6:00 am75 °FLight rain. Passing clouds.5 mph100%29.89 "Hg5 mi
5:30 am75 °FPartly cloudy.1 mph94%29.89 "HgN/A
5:00 am75 °FPassing clouds.2 mph100%29.89 "HgN/A
4:30 am75 °FPartly cloudy.2 mph100%29.89 "HgN/A
4:00 am75 °FPartly cloudy.2 mph100%29.86 "HgN/A
3:30 am75 °FPartly cloudy.No wind100%29.86 "Hg5 mi
3:00 am75 °FPartly cloudy.1 mph100%29.86 "HgN/A
2:30 am75 °FPartly cloudy.2 mph100%29.86 "HgN/A
2:00 am75 °FOvercast.No wind100%29.89 "HgN/A
1:30 am75 °FClear.No wind100%29.89 "HgN/A
1:00 am75 °FMostly cloudy.2 mph100%29.89 "HgN/A
12:30 am75 °FMostly cloudy.2 mph100%29.89 "HgN/A
12:00 am75 °FMostly cloudy.3 mph100%29.92 "HgN/A
11:30 pm
Sun, Apr 18
75 °FPassing clouds.2 mph94%29.92 "Hg5 mi
11:00 pm77 °FPassing clouds.2 mph89%29.92 "HgN/A
Weather by CustomWeather, © 2021

See weather overview